Overview Statistics Trail Chart Weather Telemetry Raw packets
 

This is the latest recevied weather packets stored in our database for station/object SV9TNF-51. If no packets are shown the sender has not sent any weather packets the latest 10 day(s).

<< 69 70 71 72 73 74 75 >>
Time Temp. Humidity Pressure Rain* Wind** Luminosity Snow
1788180468 34.44° C 43% 1011.9 hPa 0 mm 1.79 m/s, 115° - -
1788180168 32.78° C 47% 1011.9 hPa 0 mm 10.28 m/s, 314° - -
1788179868 33.33° C 45% 1011.9 hPa 0 mm 8.94 m/s, 333° - -
1788179568 34.44° C 44% 1011.5 hPa 0 mm 7.6 m/s, 349° - -
1788179268 34.44° C 43% 1011.5 hPa 0 mm 7.15 m/s, 128° - -
1788178968 35° C 43% 1011.5 hPa 0 mm 1.79 m/s, 142° - -
1788178668 35.56° C 40% 1011.5 hPa 0 mm 3.13 m/s, 339° - -
1788178368 35° C 43% 1011.5 hPa 0 mm 1.79 m/s, 129° - -
1788178068 34.44° C 43% 1011.9 hPa 0 mm 2.24 m/s, 342° - -
1788177768 35.56° C 42% 1011.9 hPa 0 mm 1.34 m/s, 129° - -
1788177467 35.56° C 44% 1011.9 hPa 0 mm 2.68 m/s, 129° - -
1788177167 35.56° C 44% 1011.9 hPa 0 mm 2.24 m/s, 90° - -
1788176867 35° C 43% 1011.9 hPa 0 mm 2.24 m/s, 58° - -
1788176567 34.44° C 44% 1011.9 hPa 0 mm 1.34 m/s, 118° - -
1788176267 33.33° C 47% 1011.9 hPa 0 mm 1.79 m/s, 125° - -
1788175967 33.33° C 47% 1012.2 hPa 0 mm 7.6 m/s, 105° - -
1788175667 33.89° C 46% 1012.2 hPa 0 mm 4.47 m/s, 128° - -
1788175367 32.78° C 47% 1012.2 hPa 0 mm 8.05 m/s, 335° - -
1788175066 32.78° C 49% 1012.2 hPa 0 mm 9.39 m/s, 316° - -
1788174766 32.78° C 48% 1012.2 hPa 0 mm 10.28 m/s, 97° - -
1788174466 33.89° C 46% 1012.5 hPa 0 mm 11.18 m/s, 336° - -
1788174166 34.44° C 45% 1012.5 hPa 0 mm 7.15 m/s, 127° - -
1788173866 35.56° C 42% 1012.5 hPa 0 mm 1.79 m/s, 134° - -
1788173566 35.56° C 41% 1012.5 hPa 0 mm 4.02 m/s, 130° - -
1788173277 35.56° C 41% 1012.5 hPa 0 mm 1.79 m/s, 136° - -

* Rain latest hour (hover to see other rain measurements)
** Current wind speed in m/s (hover to see current wind gust speed)